Time;durP1;ratioP1;P1;durP2;ratioP2;P2;SDS_P1;SDS_P2;PMS_P1;PMS_P2;Temp;Humidity;BMP_temperature;BMP_pressure;BME280_temperature;BME280_humidity;BME280_pressure;Samples;Min_cycle;Max_cycle;Signal;HPM_P1;HPM_P2
2022/12/15 00:39:23;;;;;;;0.10;0.10;;;;;;;-5.12;89.26;99712.94;6256995;22;20047;-78
2022/12/15 00:41:48;;;;;;;0.08;0.08;;;;;;;-5.09;89.10;99722.44;6277693;22;20281;-78
2022/12/15 00:44:13;;;;;;;0.00;0.00;;;;;;;-5.14;89.28;99715.00;6244029;22;20013;-77
2022/12/15 00:46:54;;;;;;;0.00;0.00;;;;;;;-5.21;89.30;99710.53;6223640;22;20016;-76
2022/12/15 01:22:36;;;;;;;0.00;0.00;;;;;;;-5.21;89.11;99719.38;6164685;22;20454;-77
2022/12/15 01:25:02;;;;;;;0.10;0.10;;;;;;;-5.15;89.51;99725.84;6171450;22;20012;-77
2022/12/15 01:27:27;;;;;;;0.10;0.10;;;;;;;-5.13;89.57;99721.94;6180789;22;20009;-78
2022/12/15 01:29:53;;;;;;;0.10;0.10;;;;;;;-5.13;89.44;99716.63;6124104;23;20012;-79
2022/12/15 01:32:18;;;;;;;0.10;0.10;;;;;;;-5.09;89.63;99722.44;6154628;22;20641;-79
2022/12/15 01:34:44;;;;;;;0.10;0.10;;;;;;;-5.13;89.72;99710.47;6127789;22;20009;-78
2022/12/15 01:37:09;;;;;;;0.08;0.08;;;;;;;-5.15;89.44;99713.31;6169264;22;20113;-77
2022/12/15 01:42:18;;;;;;;0.00;0.00;;;;;;;-5.22;89.13;99717.72;6157658;22;20028;-79
2022/12/15 01:44:49;;;;;;;0.00;0.00;;;;;;;-5.21;89.67;99730.03;6130248;23;20009;-79
2022/12/15 01:47:14;;;;;;;0.10;0.10;;;;;;;-5.26;89.76;99735.06;6171841;22;20338;-77
2022/12/15 01:49:42;;;;;;;0.10;0.10;;;;;;;-5.30;89.87;99733.78;6178763;22;20017;-79
2022/12/15 01:52:09;;;;;;;0.10;0.10;;;;;;;-5.32;89.57;99746.47;6176421;22;20027;-78
2022/12/15 01:54:48;;;;;;;0.10;0.10;;;;;;;-5.34;89.63;99748.50;6150862;22;20009;-78
2022/12/15 01:57:20;;;;;;;0.10;0.10;;;;;;;-5.39;89.60;99748.19;6206893;22;20004;-77
2022/12/15 01:59:51;;;;;;;0.00;0.00;;;;;;;-5.36;89.83;99747.81;6174237;22;21075;-78
2022/12/15 02:02:20;;;;;;;0.00;0.00;;;;;;;-5.35;89.79;99747.63;6180860;22;20016;-76
2022/12/15 02:04:47;;;;;;;0.10;0.10;;;;;;;-5.35;89.84;99749.50;6172363;22;20415;-76
2022/12/15 02:07:14;;;;;;;0.10;0.10;;;;;;;-5.40;90.14;99751.84;6208171;22;20027;-78
2022/12/15 02:09:42;;;;;;;0.00;0.00;;;;;;;-5.41;89.73;99756.34;6171137;22;20011;-77
2022/12/15 02:12:07;;;;;;;0.00;0.00;;;;;;;-5.47;89.41;99760.56;6154804;22;20008;-77
2022/12/15 02:14:55;;;;;;;0.00;0.00;;;;;;;-5.47;89.69;99768.56;6174398;22;20105;-77
2022/12/15 02:17:42;;;;;;;0.10;0.10;;;;;;;-5.54;89.80;99772.94;6207324;22;20008;-77
2022/12/15 02:20:13;;;;;;;0.00;0.00;;;;;;;-5.59;89.66;99775.31;6175587;22;20488;-76
2022/12/15 02:22:49;;;;;;;0.10;0.10;;;;;;;-5.61;90.01;99771.97;6181672;23;20008;-76
2022/12/15 02:25:33;;;;;;;0.10;0.10;;;;;;;-5.64;89.97;99772.34;6174141;23;20000;-76
2022/12/15 02:28:29;;;;;;;0.10;0.10;;;;;;;-5.69;89.49;99780.03;6179801;22;20004;-77
2022/12/15 02:33:59;;;;;;;0.00;0.00;;;;;;;-5.73;90.23;99779.53;6202736;23;20441;-77
2022/12/15 02:36:41;;;;;;;0.10;0.10;;;;;;;-5.74;89.90;99777.06;6177529;22;20095;-76
2022/12/15 02:39:07;;;;;;;0.10;0.10;;;;;;;-5.74;90.09;99777.06;6171709;22;20081;-77
2022/12/15 02:41:44;;;;;;;0.00;0.00;;;;;;;-5.81;90.17;99772.44;6153827;22;20013;-76
2022/12/15 02:44:47;;;;;;;0.10;0.10;;;;;;;-5.79;90.00;99767.75;6174467;22;20004;-78
2022/12/15 02:47:38;;;;;;;0.00;0.00;;;;;;;-5.72;89.84;99767.03;6077862;22;20058;-77
2022/12/15 02:50:26;;;;;;;0.10;0.10;;;;;;;-5.78;90.02;99761.44;6178814;22;20013;-76
2022/12/15 02:52:54;;;;;;;0.10;0.10;;;;;;;-5.77;89.67;99767.59;6174905;22;20005;-78
2022/12/15 02:55:33;;;;;;;0.00;0.00;;;;;;;-5.81;89.95;99761.78;6206324;22;20335;-78
2022/12/15 02:58:17;;;;;;;0.10;0.10;;;;;;;-5.81;89.91;99764.44;6179104;22;20009;-76
2022/12/15 03:00:49;;;;;;;0.10;0.10;;;;;;;-5.83;89.71;99758.44;6177475;22;20450;-76
2022/12/15 03:03:19;;;;;;;0.10;0.10;;;;;;;-5.89;89.95;99759.16;6177232;22;20004;-77
2022/12/15 03:05:53;;;;;;;0.00;0.00;;;;;;;-5.93;89.73;99760.50;6177606;23;20032;-77
2022/12/15 03:08:19;;;;;;;0.10;0.10;;;;;;;-5.94;90.05;99766.88;6171922;22;20026;-76
2022/12/15 03:10:46;;;;;;;0.10;0.10;;;;;;;-5.93;90.15;99779.16;6207533;22;20004;-77
2022/12/15 03:13:13;;;;;;;0.10;0.10;;;;;;;-5.96;89.82;99771.50;6173610;22;20000;-76
2022/12/15 03:15:38;;;;;;;0.10;0.10;;;;;;;-5.97;90.46;99769.91;6179611;22;20514;-77
2022/12/15 03:18:04;;;;;;;0.10;0.10;;;;;;;-5.94;89.71;99768.69;6204259;22;20032;-77
2022/12/15 03:20:29;;;;;;;0.00;0.00;;;;;;;-5.94;89.83;99766.88;6173265;22;20013;-76
2022/12/15 03:22:55;;;;;;;0.10;0.10;;;;;;;-5.96;89.75;99758.19;6179766;22;20012;-76
2022/12/15 03:25:20;;;;;;;0.00;0.00;;;;;;;-5.91;89.43;99766.50;6174004;23;20015;-76
2022/12/15 03:27:46;;;;;;;0.10;0.10;;;;;;;-5.87;89.76;99767.81;6130452;23;20484;-76
2022/12/15 03:30:12;;;;;;;0.10;0.10;;;;;;;-5.89;89.72;99769.81;6149745;22;20311;-76
2022/12/15 03:32:38;;;;;;;0.03;0.03;;;;;;;-5.84;89.59;99771.94;6180217;23;20004;-76
2022/12/15 03:35:04;;;;;;;0.10;0.10;;;;;;;-5.85;89.94;99763.13;6153794;23;20342;-76
2022/12/15 03:37:29;;;;;;;0.10;0.10;;;;;;;-5.85;89.98;99757.00;6196832;22;20500;-77
2022/12/15 03:39:55;;;;;;;0.10;0.10;;;;;;;-5.81;89.52;99772.44;6208177;23;20001;-76
2022/12/15 03:45:05;;;;;;;0.10;0.10;;;;;;;-5.74;89.30;99774.41;6163733;22;20019;-77
2022/12/15 03:47:31;;;;;;;0.10;0.10;;;;;;;-5.74;89.30;99777.88;6149318;22;20020;-76
2022/12/15 03:49:57;;;;;;;0.03;0.03;;;;;;;-5.72;89.21;99772.38;6150235;23;20072;-76
2022/12/15 03:52:22;;;;;;;0.00;0.00;;;;;;;-5.71;89.18;99782.03;6176172;22;20077;-76
2022/12/15 03:54:48;;;;;;;0.10;0.10;;;;;;;-5.72;89.40;99764.38;6205537;22;20062;-78
2022/12/15 03:57:13;;;;;;;0.10;0.10;;;;;;;-5.69;89.22;99769.38;6128942;23;20478;-76
2022/12/15 03:59:38;;;;;;;0.00;0.00;;;;;;;-5.69;88.90;99758.72;6201942;22;20009;-77
2022/12/15 04:02:04;;;;;;;0.00;0.00;;;;;;;-5.59;89.30;99769.97;6153187;22;20044;-76
2022/12/15 04:04:29;;;;;;;0.10;0.10;;;;;;;-5.53;89.06;99763.94;6150650;23;20004;-77
2022/12/15 04:06:55;;;;;;;0.10;0.10;;;;;;;-5.43;88.71;99769.03;6154661;23;20030;-76
2022/12/15 04:09:20;;;;;;;0.00;0.00;;;;;;;-5.43;88.94;99767.19;6178160;23;20486;-77
2022/12/15 04:11:46;;;;;;;0.00;0.00;;;;;;;-5.49;88.40;99759.06;6149082;23;20015;-77
2022/12/15 04:14:11;;;;;;;0.10;0.10;;;;;;;-5.39;88.62;99764.16;6155504;22;20978;-76
2022/12/15 04:16:37;;;;;;;0.10;0.10;;;;;;;-5.35;88.72;99768.16;6122074;23;20145;-75
2022/12/15 04:21:46;;;;;;;0.10;0.10;;;;;;;-5.26;88.25;99759.06;6156627;22;20509;-76
2022/12/15 05:32:38;;;;;;;0.10;0.10;;;;;;;-5.53;87.87;99763.94;6184525;23;20049;-75
2022/12/15 05:35:04;;;;;;;0.10;0.10;;;;;;;-5.48;87.87;99760.75;6173854;23;20093;-75
2022/12/15 05:37:29;;;;;;;0.10;0.10;;;;;;;-5.45;88.10;99761.22;6176990;23;20599;-76
2022/12/15 05:39:54;;;;;;;0.10;0.10;;;;;;;-5.45;87.71;99761.22;6155778;23;20001;-76
2022/12/15 05:42:20;;;;;;;0.10;0.10;;;;;;;-5.45;87.74;99757.72;6150454;23;20438;-77
2022/12/15 05:44:45;;;;;;;0.00;0.00;;;;;;;-5.53;88.07;99761.28;6151460;22;20005;-77
2022/12/15 05:47:11;;;;;;;0.00;0.00;;;;;;;-5.48;88.07;99769.56;6148965;22;20037;-76
2022/12/15 05:49:36;;;;;;;0.10;0.10;;;;;;;-5.53;87.94;99769.28;6252312;22;20104;-76
2022/12/15 05:52:02;;;;;;;0.10;0.10;;;;;;;-5.57;87.95;99773.28;6249425;22;20101;-75
2022/12/15 05:54:28;;;;;;;0.00;0.00;;;;;;;-5.57;87.53;99778.63;6251738;22;20088;-77
2022/12/15 05:56:53;;;;;;;0.10;0.10;;;;;;;-5.70;87.55;99770.38;6277252;22;20018;-77
2022/12/15 05:59:19;;;;;;;0.00;0.00;;;;;;;-5.69;87.82;99770.19;6272821;22;20726;-76
2022/12/15 06:01:44;;;;;;;0.00;0.00;;;;;;;-5.70;87.79;99773.03;6227790;22;20020;-76
2022/12/15 06:04:11;;;;;;;0.10;0.10;;;;;;;-5.68;88.23;99777.19;6272080;22;20009;-75
2022/12/15 06:06:37;;;;;;;0.00;0.00;;;;;;;-5.66;88.29;99777.84;6175133;22;20335;-77
2022/12/15 06:09:03;;;;;;;0.10;0.10;;;;;;;-5.63;87.47;99779.31;6252739;22;20013;-76
2022/12/15 06:11:28;;;;;;;0.10;0.10;;;;;;;-5.68;87.86;99787.00;6248465;22;20008;-76
2022/12/15 06:13:54;;;;;;;0.10;0.10;;;;;;;-5.69;87.55;99785.38;6279544;22;20041;-76
2022/12/15 06:16:22;;;;;;;0.00;0.00;;;;;;;-5.69;87.43;99788.84;6276510;22;20378;-76
2022/12/15 06:18:49;;;;;;;0.10;0.10;;;;;;;-5.70;87.52;99781.84;6277229;22;20051;-75
2022/12/15 06:21:18;;;;;;;0.10;0.10;;;;;;;-5.66;87.33;99785.84;6277037;22;20497;-76
2022/12/15 06:23:44;;;;;;;0.10;0.10;;;;;;;-5.67;87.91;99786.81;6275974;22;19997;-76
2022/12/15 06:26:11;;;;;;;0.00;0.00;;;;;;;-5.67;87.24;99786.00;6279532;22;20013;-77
2022/12/15 06:28:36;;;;;;;0.00;0.00;;;;;;;-5.72;87.74;99791.88;6274111;22;20009;-77
2022/12/15 06:31:04;;;;;;;0.00;0.00;;;;;;;-5.82;87.72;99786.75;6280464;22;20020;-76
2022/12/15 06:33:30;;;;;;;0.10;0.10;;;;;;;-5.80;87.25;99792.75;6250572;22;20013;-77
2022/12/15 06:36:05;;;;;;;0.00;0.00;;;;;;;-5.88;87.61;99783.97;6250992;22;20017;-80
2022/12/15 06:38:31;;;;;;;0.00;0.00;;;;;;;-5.75;87.97;99807.34;6275497;22;20035;-78
2022/12/15 06:40:59;;;;;;;0.10;0.10;;;;;;;-5.80;87.68;99803.41;6278106;22;20087;-78
2022/12/15 06:43:25;;;;;;;0.00;0.00;;;;;;;-5.89;87.56;99792.97;6248589;22;20048;-76
2022/12/15 06:45:51;;;;;;;0.05;0.05;;;;;;;-5.83;87.95;99805.56;6226040;22;20016;-77
2022/12/15 06:48:17;;;;;;;0.00;0.00;;;;;;;-5.86;87.61;99820.06;6243939;22;20360;-78
2022/12/15 06:50:44;;;;;;;0.10;0.10;;;;;;;-5.95;87.65;99805.13;6150915;23;20017;-77
2022/12/15 06:53:10;;;;;;;0.00;0.00;;;;;;;-5.97;87.61;99810.63;6177707;22;20012;-77
2022/12/15 06:55:36;;;;;;;0.10;0.10;;;;;;;-6.03;87.53;99802.53;6174823;23;20008;-79
2022/12/15 06:58:04;;;;;;;0.10;0.10;;;;;;;-6.10;87.29;99804.22;6131502;23;20012;-76
2022/12/15 07:00:31;;;;;;;0.00;0.00;;;;;;;-6.11;87.71;99808.72;6175341;22;20051;-78
2022/12/15 07:02:57;;;;;;;0.00;0.00;;;;;;;-6.25;87.71;99802.31;6152759;23;20009;-76
2022/12/15 07:05:22;;;;;;;0.10;0.10;;;;;;;-6.32;87.81;99807.47;6156011;23;20319;-76
2022/12/15 07:07:55;;;;;;;0.00;0.00;;;;;;;-6.28;87.65;99812.44;6150270;23;20015;-76
2022/12/15 07:10:21;;;;;;;0.00;0.00;;;;;;;-6.39;88.20;99795.03;6178873;22;20016;-76
2022/12/15 07:12:47;;;;;;;0.00;0.00;;;;;;;-6.36;87.78;99798.16;6175670;22;20338;-76
2022/12/15 07:15:12;;;;;;;0.10;0.10;;;;;;;-6.36;88.25;99808.00;6206091;22;19996;-78
2022/12/15 07:17:37;;;;;;;0.10;0.10;;;;;;;-6.37;88.21;99824.94;6157828;22;20017;-77
2022/12/15 07:20:04;;;;;;;0.00;0.00;;;;;;;-6.39;88.11;99826.97;6153054;22;19997;-77
2022/12/15 07:22:29;;;;;;;0.10;0.10;;;;;;;-6.43;88.38;99830.97;6155398;22;20441;-78
2022/12/15 07:24:55;;;;;;;0.10;0.10;;;;;;;-6.46;88.65;99823.31;6177864;22;20011;-77
2022/12/15 07:27:26;;;;;;;0.00;0.00;;;;;;;-6.52;88.10;99817.66;6183264;22;20005;-76
2022/12/15 07:29:56;;;;;;;0.10;0.10;;;;;;;-6.57;88.60;99825.34;6203240;22;20390;-77
2022/12/15 07:32:22;;;;;;;0.00;0.00;;;;;;;-6.59;88.41;99819.34;6164168;22;20016;-77
2022/12/15 07:34:47;;;;;;;0.10;0.10;;;;;;;-6.61;87.98;99823.16;6176626;23;20008;-77
2022/12/15 07:37:13;;;;;;;0.10;0.10;;;;;;;-6.81;88.50;99802.25;6201336;22;20043;-75
2022/12/15 07:39:38;;;;;;;0.10;0.10;;;;;;;-6.75;88.66;99817.53;6147930;23;20064;-77
2022/12/15 07:42:06;;;;;;;0.10;0.10;;;;;;;-6.72;88.56;99832.34;6179682;22;20005;-77
2022/12/15 07:44:31;;;;;;;0.08;0.08;;;;;;;-6.84;88.69;99824.69;6153993;22;20493;-77
2022/12/15 07:46:57;;;;;;;0.00;0.00;;;;;;;-6.87;88.54;99824.22;6181559;22;20027;-77
2022/12/15 07:49:22;;;;;;;0.00;0.00;;;;;;;-6.86;88.73;99820.56;6177823;22;20009;-78
2022/12/15 07:51:48;;;;;;;0.10;0.10;;;;;;;-6.89;89.13;99821.72;6178042;23;20008;-76
2022/12/15 07:54:16;;;;;;;0.10;0.10;;;;;;;-6.88;89.35;99823.38;6125323;23;20390;-77
2022/12/15 07:56:42;;;;;;;0.10;0.10;;;;;;;-6.80;88.94;99829.66;6153927;23;20028;-76
2022/12/15 07:59:18;;;;;;;;;;;;;;;;;;;;;
2022/12/15 08:01:44;;;;;;;0.10;0.10;;;;;;;-6.76;88.60;99831.00;6157936;23;20079;-76
2022/12/15 08:04:09;;;;;;;0.00;0.00;;;;;;;-6.76;89.18;99838.97;6177309;23;20028;-78
2022/12/15 08:06:55;;;;;;;0.00;0.00;;;;;;;-6.87;88.73;99829.53;6176542;23;20385;-77
2022/12/15 08:09:21;;;;;;;0.10;0.10;;;;;;;-6.85;88.96;99828.38;6156949;23;20000;-79
2022/12/15 08:11:49;;;;;;;0.10;0.10;;;;;;;-6.70;88.62;99840.97;6177901;23;20008;-77
2022/12/15 08:14:19;;;;;;;0.10;0.10;;;;;;;-6.70;88.96;99846.28;6155535;22;20380;-78
2022/12/15 08:16:45;;;;;;;0.10;0.10;;;;;;;-6.75;88.79;99833.50;6153488;23;20004;-77
2022/12/15 08:19:12;;;;;;;0.10;0.10;;;;;;;-6.57;88.91;99857.25;6155965;22;20091;-76
2022/12/15 08:21:39;;;;;;;0.00;0.00;;;;;;;-6.61;88.51;99841.78;6178523;23;20004;-77
2022/12/15 08:24:06;;;;;;;0.10;0.10;;;;;;;-6.48;88.70;99866.06;6181238;23;20004;-76
2022/12/15 08:26:34;;;;;;;0.10;0.10;;;;;;;-6.62;87.96;99835.63;6179582;22;20082;-77
2022/12/15 08:29:05;;;;;;;0.10;0.10;;;;;;;-6.60;88.29;99841.63;6181975;22;20083;-78
2022/12/15 08:31:33;;;;;;;0.10;0.10;;;;;;;-6.46;88.72;99844.59;6177879;23;20091;-78
2022/12/15 08:34:07;;;;;;;0.10;0.10;;;;;;;-6.44;88.80;99850.56;6182036;23;20004;-77
2022/12/15 08:36:33;;;;;;;0.10;0.10;;;;;;;-6.46;87.85;99842.75;6179562;22;20028;-77
2022/12/15 08:39:00;;;;;;;0.10;0.10;;;;;;;-6.28;88.06;99860.34;6181099;23;20358;-76
2022/12/15 08:41:30;;;;;;;0.10;0.10;;;;;;;-6.30;87.91;99863.19;6182572;22;20004;-78
2022/12/15 08:43:59;;;;;;;0.10;0.10;;;;;;;-6.19;87.63;99876.13;6173320;23;19997;-79
2022/12/15 08:46:30;;;;;;;0.00;0.00;;;;;;;-6.21;88.21;99864.81;6156383;23;20055;-76
2022/12/15 08:48:56;;;;;;;0.10;0.10;;;;;;;-6.11;87.71;99877.13;6178385;22;20020;-76
2022/12/15 08:51:26;;;;;;;0.10;0.10;;;;;;;-5.98;87.24;99893.38;6183188;23;20008;-74
2022/12/15 08:53:53;;;;;;;0.10;0.10;;;;;;;-6.05;87.45;99871.09;6205319;22;20296;-79
2022/12/15 08:56:22;;;;;;;0.08;0.08;;;;;;;-5.83;87.10;99896.94;6206684;23;20012;-76
2022/12/15 08:58:53;;;;;;;0.10;0.10;;;;;;;-5.70;87.18;99895.56;6154814;23;20022;-77
2022/12/15 09:01:21;;;;;;;0.00;0.00;;;;;;;-5.69;86.99;99884.75;6174626;22;20009;-76
2022/12/15 09:04:26;;;;;;;0.00;0.00;;;;;;;-5.61;86.48;99883.88;6181795;22;20008;-77
2022/12/15 09:06:55;;;;;;;0.10;0.10;;;;;;;-5.44;86.50;99904.09;6194756;23;20012;-77
2022/12/15 09:09:21;;;;;;;0.10;0.10;;;;;;;-5.51;86.44;99884.50;6178846;23;20004;-76
2022/12/15 09:11:54;;;;;;;0.10;0.10;;;;;;;-5.36;85.79;99891.75;6178440;23;20026;-77
2022/12/15 09:14:19;;;;;;;0.10;0.10;;;;;;;-5.28;85.93;99894.38;6157458;23;20015;-76
2022/12/15 09:16:48;;;;;;;0.10;0.10;;;;;;;-5.25;85.78;99894.00;6178564;23;20009;-77
2022/12/15 09:19:13;;;;;;;0.10;0.10;;;;;;;-4.99;85.72;99925.69;6182773;22;20011;-77
2022/12/15 09:21:39;;;;;;;0.10;0.10;;;;;;;-4.96;85.88;99919.16;6131388;23;20008;-77
2022/12/15 09:24:05;;;;;;;0.10;0.10;;;;;;;-4.90;84.97;99913.13;6181875;22;20004;-77
2022/12/15 09:26:33;;;;;;;0.10;0.10;;;;;;;-4.68;84.95;99931.97;6181595;22;20626;-78
2022/12/15 09:29:02;;;;;;;0.00;0.00;;;;;;;-4.62;84.90;99931.25;6202814;22;20319;-76
2022/12/15 09:31:35;;;;;;;0.08;0.08;;;;;;;-4.44;84.81;99929.09;6206448;22;20075;-76
2022/12/15 09:34:03;;;;;;;0.00;0.00;;;;;;;-4.26;84.18;99920.75;6177031;22;20377;-77
2022/12/15 09:36:31;;;;;;;0.00;0.00;;;;;;;-3.74;84.70;99923.56;6179843;22;20004;-77
2022/12/15 09:38:57;;;;;;;0.10;0.10;;;;;;;-0.86;86.54;99936.56;6180656;22;20430;-77
2022/12/15 09:41:27;;;;;;;0.10;0.10;;;;;;;3.92;71.59;99917.31;6149483;22;20012;-76
2022/12/15 09:44:15;;;;;;;0.00;0.00;;;;;;;9.03;52.95;99947.63;6180463;22;19993;-76
2022/12/15 09:47:11;;;;;;;0.10;0.10;;;;;;;12.45;44.25;99947.09;6180840;23;19996;-77
2022/12/15 09:49:42;;;;;;;0.00;0.00;;;;;;;15.48;38.54;99966.94;6175926;22;20032;-76
2022/12/15 09:52:17;;;;;;;0.00;0.00;;;;;;;17.46;35.01;99965.06;6207594;22;20008;-77
2022/12/15 09:54:43;;;;;;;0.00;0.00;;;;;;;19.02;33.16;99957.63;6176019;22;20122;-77
2022/12/15 09:57:12;;;;;;;0.00;0.00;;;;;;;20.29;31.91;99967.94;6205437;22;20012;-77
2022/12/15 09:59:54;;;;;;;0.00;0.00;;;;;;;20.79;30.92;99960.50;6178523;22;19997;-77
2022/12/15 10:02:29;;;;;;;0.00;0.00;;;;;;;21.77;29.47;99977.09;6181348;22;20019;-76
2022/12/15 10:05:11;;;;;;;0.00;0.00;;;;;;;22.66;28.83;99974.34;6182050;22;20012;-75
2022/12/15 10:07:45;;;;;;;0.00;0.00;;;;;;;23.01;27.63;99968.03;6180631;22;20004;-77
2022/12/15 10:10:26;;;;;;;0.00;0.00;;;;;;;23.97;27.23;99974.19;6178131;22;20023;-77
2022/12/15 10:12:56;;;;;;;0.00;0.00;;;;;;;24.74;26.01;99974.47;6202211;22;20284;-77
2022/12/15 10:15:36;;;;;;;0.00;0.00;;;;;;;24.96;24.46;99980.41;6178758;22;20005;-76
2022/12/15 10:18:10;;;;;;;0.00;0.00;;;;;;;25.15;24.28;99969.13;6182475;22;20012;-75
2022/12/15 10:20:38;;;;;;;0.00;0.00;;;;;;;25.82;23.82;99973.25;6179059;23;20005;-77
2022/12/15 10:23:14;;;;;;;0.00;0.00;;;;;;;26.58;23.82;99974.91;6152620;22;20001;-78
2022/12/15 10:26:04;;;;;;;;;;;;;;;;;;;;;
2022/12/15 10:28:42;;;;;;;0.00;0.00;;;;;;;27.33;21.45;99977.53;6206768;23;20072;-79
2022/12/15 10:31:48;;;;;;;;;;;;;;;;;;;;;
2022/12/15 10:34:36;;;;;;;0.00;0.00;;;;;;;28.67;19.05;99947.94;6207475;23;20079;-78
2022/12/15 10:37:02;;;;;;;0.00;0.00;;;;;;;28.16;19.56;99965.91;6162105;22;20011;-78
2022/12/15 10:39:39;;;;;;;0.00;0.00;;;;;;;28.09;18.51;99969.50;6183159;23;20004;-79
2022/12/15 10:42:24;;;;;;;;;;;;;;;;;;;;;
2022/12/15 10:45:01;;;;;;;0.00;0.00;;;;;;;28.63;17.72;99951.97;6208173;23;20061;-78
2022/12/15 10:47:31;;;;;;;0.00;0.00;;;;;;;29.07;17.58;99968.44;6179893;22;20028;-78
2022/12/15 10:50:35;;;;;;;0.00;0.00;;;;;;;29.78;16.86;99969.47;6180170;22;20004;-78
2022/12/15 10:53:16;;;;;;;0.00;0.00;;;;;;;29.81;16.54;99967.06;6218829;23;20119;-78
2022/12/15 10:55:42;;;;;;;0.00;0.00;;;;;;;30.02;17.05;99964.16;6087614;23;20006;-78
2022/12/15 10:58:19;;;;;;;0.00;0.00;;;;;;;30.22;15.93;99958.00;6108316;22;20013;-78
2022/12/15 11:00:45;;;;;;;0.00;0.00;;;;;;;30.49;15.62;99960.25;6177077;22;20012;-80
2022/12/15 11:03:36;;;;;;;0.00;0.00;;;;;;;30.79;15.08;99962.44;6232907;22;20326;-78
2022/12/15 11:06:23;;;;;;;;;;;;;;;;;;;;;
2022/12/15 11:09:14;;;;;;;0.00;0.00;;;;;;;30.83;13.83;99945.50;6184912;22;20080;-78
2022/12/15 11:14:42;;;;;;;0.00;0.00;;;;;;;31.75;14.55;99953.47;6177976;22;20046;-77
2022/12/15 11:17:08;;;;;;;0.00;0.00;;;;;;;31.96;14.06;99953.16;6285290;22;20032;-78
2022/12/15 11:19:45;;;;;;;0.00;0.00;;;;;;;31.95;12.88;99945.09;6253515;22;20032;-78
2022/12/15 11:22:22;;;;;;;0.00;0.00;;;;;;;32.01;14.18;99943.41;6281956;22;20489;-77
2022/12/15 11:25:21;;;;;;;0.00;0.00;;;;;;;32.17;12.64;99946.44;6280948;22;20009;-78
2022/12/15 11:27:49;;;;;;;0.00;0.00;;;;;;;32.15;12.78;99943.22;6175824;22;20005;-75
2022/12/15 11:30:19;;;;;;;0.00;0.00;;;;;;;32.43;12.81;99940.41;6279974;22;20001;-77
2022/12/15 11:33:07;;;;;;;0.00;0.00;;;;;;;32.95;12.39;99942.00;6281156;22;20032;-78
2022/12/15 11:35:44;;;;;;;0.00;0.00;;;;;;;33.19;12.39;99946.41;6282060;22;20005;-77
2022/12/15 11:38:39;;;;;;;0.00;0.00;;;;;;;33.45;12.76;99934.59;6280906;22;20309;-78
2022/12/15 11:41:30;;;;;;;0.00;0.00;;;;;;;34.24;12.29;99941.41;6281667;22;20009;-78
2022/12/15 11:44:16;;;;;;;0.00;0.00;;;;;;;34.46;11.94;99944.56;6257495;22;20005;-78
2022/12/15 11:46:54;;;;;;;0.00;0.00;;;;;;;34.91;12.12;99945.91;6277392;22;20001;-76
2022/12/15 11:49:29;;;;;;;0.00;0.00;;;;;;;35.22;12.27;99942.66;6191613;22;20017;-77
2022/12/15 11:52:19;;;;;;;0.00;0.00;;;;;;;35.07;11.20;99942.25;6179094;23;20008;-78
2022/12/15 11:54:54;;;;;;;0.00;0.00;;;;;;;34.99;11.40;99930.28;6177618;22;20013;-77
2022/12/15 11:57:19;;;;;;;0.00;0.00;;;;;;;35.57;10.78;99934.41;6180987;23;20009;-78
2022/12/15 12:00:02;;;;;;;0.00;0.00;;;;;;;35.67;11.39;99932.50;6202501;23;20000;-78
2022/12/15 12:02:43;;;;;;;0.00;0.00;;;;;;;35.73;10.90;99916.47;6182020;22;20009;-79
2022/12/15 12:05:46;;;;;;;0.00;0.00;;;;;;;36.14;10.85;99926.19;6179346;22;20005;-79
2022/12/15 12:08:22;;;;;;;0.00;0.00;;;;;;;35.74;10.50;99918.06;6175200;22;20004;-79
2022/12/15 12:11:12;;;;;;;0.00;0.00;;;;;;;36.04;11.00;99921.63;6207708;22;20007;-77
2022/12/15 12:13:58;;;;;;;0.00;0.00;;;;;;;36.42;10.69;99918.81;6207662;23;20003;-77
2022/12/15 12:16:42;;;;;;;0.00;0.00;;;;;;;35.99;10.54;99911.63;6181717;22;20004;-78
2022/12/15 12:19:22;;;;;;;0.00;0.00;;;;;;;35.81;10.06;99912.19;6210199;23;20023;-76
2022/12/15 12:21:52;;;;;;;0.00;0.00;;;;;;;35.76;10.56;99909.88;6189673;23;20005;-75
2022/12/15 12:24:27;;;;;;;0.00;0.00;;;;;;;35.32;10.57;99906.69;6182730;23;20091;-77
2022/12/15 12:27:06;;;;;;;0.00;0.00;;;;;;;35.44;11.23;99894.56;6179326;23;20419;-77
2022/12/15 12:29:56;;;;;;;0.00;0.00;;;;;;;35.46;10.27;99895.72;6180213;22;20007;-78
2022/12/15 12:32:59;;;;;;;0.00;0.00;;;;;;;35.41;9.99;99901.16;6179726;22;20016;-76
2022/12/15 12:35:29;;;;;;;0.00;0.00;;;;;;;35.33;10.14;99900.56;6204092;23;20001;-78
2022/12/15 12:38:02;;;;;;;0.00;0.00;;;;;;;35.36;10.19;99878.97;6209426;22;20000;-78
2022/12/15 12:40:58;;;;;;;0.00;0.00;;;;;;;35.46;10.05;99890.03;6180845;23;20005;-77
2022/12/15 12:43:49;;;;;;;0.00;0.00;;;;;;;35.50;10.35;99884.25;6204916;23;20000;-77
2022/12/15 12:46:38;;;;;;;0.00;0.00;;;;;;;35.33;9.96;99880.66;6210564;23;20020;-77
2022/12/15 12:49:11;;;;;;;0.00;0.00;;;;;;;35.01;10.05;99887.25;6181414;22;20013;-76
2022/12/15 12:51:40;;;;;;;0.00;0.00;;;;;;;35.41;10.49;99886.94;6182693;23;20008;-77
2022/12/15 12:54:33;;;;;;;0.00;0.00;;;;;;;35.98;10.09;99885.25;6209573;22;19996;-76
2022/12/15 12:56:59;;;;;;;0.00;0.00;;;;;;;35.42;9.59;99872.28;6208599;23;20063;-77
2022/12/15 12:59:28;;;;;;;0.00;0.00;;;;;;;34.92;10.05;99885.84;6208561;23;19997;-76
2022/12/15 13:02:20;;;;;;;0.00;0.00;;;;;;;35.16;10.08;99882.75;6182103;23;20421;-77
2022/12/15 13:04:59;;;;;;;0.00;0.00;;;;;;;35.49;10.11;99888.34;6131348;23;20008;-77
2022/12/15 13:07:40;;;;;;;0.00;0.00;;;;;;;35.67;10.23;99887.00;6209701;23;20075;-76
2022/12/15 13:10:18;;;;;;;0.00;0.00;;;;;;;35.57;9.34;99886.06;6182186;23;20091;-77
2022/12/15 13:12:58;;;;;;;0.00;0.00;;;;;;;35.55;9.36;99886.53;6208051;23;20004;-76
2022/12/15 13:19:57;;;;;;;0.00;0.00;;;;;;;35.46;9.92;99886.41;6002034;23;20061;-76
2022/12/15 13:22:47;;;;;;;;;;;;;;;;;;;;;
2022/12/15 13:25:32;;;;;;;0.00;0.00;;;;;;;35.05;10.26;99882.25;6081410;23;20097;-76
2022/12/15 13:28:01;;;;;;;;;;;;;;;34.93;9.98;99881.75;6179126;23;20008;-77
2022/12/15 13:30:26;;;;;;;0.00;0.00;;;;;;;34.64;10.53;99875.19;6171992;23;20398;-75
2022/12/15 13:33:15;;;;;;;0.00;0.00;;;;;;;33.97;9.90;99873.59;6125097;23;20036;-76
2022/12/15 13:35:41;;;;;;;0.00;0.00;;;;;;;33.69;10.34;99870.13;6177692;23;20415;-76
2022/12/15 13:38:16;;;;;;;0.00;0.00;;;;;;;33.55;10.37;99874.84;6153270;23;20013;-76
2022/12/15 13:40:53;;;;;;;0.00;0.00;;;;;;;33.67;10.55;99861.25;6175093;23;20445;-76
2022/12/15 13:43:30;;;;;;;0.00;0.00;;;;;;;33.66;10.60;99851.16;6171973;23;20005;-77
2022/12/15 13:46:02;;;;;;;0.00;0.00;;;;;;;34.01;11.15;99857.25;6203148;23;20072;-76
2022/12/15 13:48:47;;;;;;;0.00;0.00;;;;;;;33.72;11.34;99855.09;6177216;22;20020;-74
2022/12/15 13:51:23;;;;;;;0.00;0.00;;;;;;;32.11;11.99;99856.81;6207084;23;20331;-78
2022/12/15 13:54:11;;;;;;;0.00;0.00;;;;;;;30.51;12.72;99842.19;6178422;23;20012;-77
2022/12/15 13:57:03;;;;;;;0.00;0.00;;;;;;;26.30;14.38;99833.31;6180869;23;20058;-77
2022/12/15 13:59:49;;;;;;;0.00;0.00;;;;;;;25.52;16.00;99834.09;6180981;22;19996;-78
2022/12/15 14:02:27;;;;;;;0.00;0.00;;;;;;;27.62;15.16;99840.13;6205095;23;20053;-76
2022/12/15 14:05:11;;;;;;;0.00;0.00;;;;;;;29.12;13.61;99831.28;6177598;23;20004;-79
2022/12/15 14:07:39;;;;;;;0.00;0.00;;;;;;;29.77;13.44;99834.63;6181157;23;20008;-78
2022/12/15 14:10:15;;;;;;;0.00;0.00;;;;;;;30.05;13.00;99824.41;6180926;22;20366;-77
2022/12/15 14:12:41;;;;;;;0.00;0.00;;;;;;;30.04;13.36;99829.25;6208392;23;20008;-78
2022/12/15 14:15:13;;;;;;;0.00;0.00;;;;;;;29.65;13.56;99827.47;6311485;22;20004;-78
2022/12/15 14:17:39;;;;;;;0.00;0.00;;;;;;;29.48;14.01;99834.78;6206483;23;20003;-77
2022/12/15 14:20:18;;;;;;;0.00;0.00;;;;;;;29.56;13.83;99838.38;6129024;23;20008;-77
2022/12/15 14:22:44;;;;;;;0.00;0.00;;;;;;;29.05;14.69;99827.28;6178674;22;20001;-78
2022/12/15 14:25:18;;;;;;;0.00;0.00;;;;;;;28.84;14.54;99827.34;6179441;22;20016;-77
2022/12/15 14:27:43;;;;;;;0.00;0.00;;;;;;;28.73;14.74;99828.19;6179886;23;20430;-77
2022/12/15 14:30:09;;;;;;;0.00;0.00;;;;;;;28.28;15.20;99830.59;6207419;23;20005;-77
2022/12/15 14:32:34;;;;;;;0.00;0.00;;;;;;;27.93;14.94;99832.16;6178894;23;20420;-77
2022/12/15 14:35:02;;;;;;;0.00;0.00;;;;;;;27.96;15.64;99825.72;6125492;23;20127;-77
2022/12/15 14:37:28;;;;;;;0.00;0.00;;;;;;;27.97;15.51;99833.00;6175175;23;20046;-77
2022/12/15 14:39:54;;;;;;;0.00;0.00;;;;;;;27.68;15.66;99838.50;6156037;22;20366;-78
2022/12/15 14:42:27;;;;;;;0.00;0.00;;;;;;;27.39;15.71;99828.41;6176391;22;20096;-77
2022/12/15 14:44:56;;;;;;;0.00;0.00;;;;;;;26.93;16.50;99833.38;6181846;23;20011;-81